Time,TemperatureF,DewpointF,PressureIn,WindDirection,WindDirectionDegrees,WindSpeedMPH,WindSpeedGustMPH,Humidity,HourlyPrecipIn,Conditions,Clouds,dailyrainin,SoftwareType,DateUTC
2013-05-07 00:00:00,66.6,35.7,30.00,SSE,158,0.0,1.3,32,0.00,,,0.00,WUHU216HW,2013-05-07 07:00:00,
2013-05-07 00:10:00,66.1,35.3,30.00,SE,135,0.0,1.1,32,0.00,,,0.00,WUHU216HW,2013-05-07 07:10:00,
2013-05-07 00:20:00,65.5,34.8,30.00,ESE,113,0.4,0.4,32,0.00,,,0.00,WUHU216HW,2013-05-07 07:20:00,
2013-05-07 00:30:00,64.8,34.9,30.00,SE,135,0.0,1.1,33,0.00,,,0.00,WUHU216HW,2013-05-07 07:30:00,
2013-05-07 00:40:00,64.4,34.6,30.00,ESE,113,0.4,1.1,33,0.00,,,0.00,WUHU216HW,2013-05-07 07:40:00,
2013-05-07 00:50:00,64.1,36.4,30.00,ESE,113,0.0,1.8,36,0.00,,,0.00,WUHU216HW,2013-05-07 07:50:00,
2013-05-07 01:00:00,63.7,34.7,29.99,ESE,113,0.0,0.4,34,0.00,,,0.00,WUHU216HW,2013-05-07 08:00:00,
2013-05-07 01:10:00,63.5,34.5,29.99,SSW,203,0.9,1.3,34,0.00,,,0.00,WUHU216HW,2013-05-07 08:10:00,
2013-05-07 01:20:00,63.0,35.5,29.99,SSE,158,0.4,1.1,36,0.00,,,0.00,WUHU216HW,2013-05-07 08:20:00,
2013-05-07 01:30:00,62.8,35.3,29.99,East,90,0.2,0.2,36,0.00,,,0.00,WUHU216HW,2013-05-07 08:30:00,
2013-05-07 01:40:00,62.3,35.5,29.99,East,90,0.0,0.7,37,0.00,,,0.00,WUHU216HW,2013-05-07 08:40:00,
2013-05-07 01:50:00,61.9,34.5,29.99,South,180,0.0,1.3,36,0.00,,,0.00,WUHU216HW,2013-05-07 08:50:00,
2013-05-07 02:00:00,61.6,35.6,29.99,West,270,1.1,1.1,38,0.00,,,0.00,WUHU216HW,2013-05-07 09:00:00,
2013-05-07 02:11:00,60.8,34.9,29.99,SE,135,0.9,0.9,38,0.00,,,0.00,WUHU216HW,2013-05-07 09:11:00,
2013-05-07 02:21:00,60.5,35.3,29.99,West,270,0.0,0.9,39,0.00,,,0.00,WUHU216HW,2013-05-07 09:21:00,
2013-05-07 02:31:00,60.1,35.0,29.99,WSW,248,0.0,1.6,39,0.00,,,0.00,WUHU216HW,2013-05-07 09:31:00,
2013-05-07 02:41:00,59.8,34.7,29.99,SE,135,0.4,0.9,39,0.00,,,0.00,WUHU216HW,2013-05-07 09:41:00,
2013-05-07 02:51:00,59.4,35.1,29.99,SSE,158,1.1,1.8,40,0.00,,,0.00,WUHU216HW,2013-05-07 09:51:00,
2013-05-07 03:01:00,59.2,34.9,29.99,South,180,0.4,1.8,40,0.00,,,0.00,WUHU216HW,2013-05-07 10:01:00,
2013-05-07 03:11:00,59.0,34.7,29.99,SSW,203,1.1,1.3,40,0.00,,,0.00,WUHU216HW,2013-05-07 10:11:00,
2013-05-07 03:21:00,59.0,34.7,29.98,SW,225,0.0,1.1,40,0.00,,,0.00,WUHU216HW,2013-05-07 10:21:00,
2013-05-07 03:31:00,58.7,35.0,29.98,SSE,158,0.2,1.1,41,0.00,,,0.00,WUHU216HW,2013-05-07 10:31:00,
2013-05-07 03:41:00,58.3,34.1,29.98,SE,135,0.0,2.0,40,0.00,,,0.00,WUHU216HW,2013-05-07 10:41:00,
2013-05-07 03:51:00,58.3,34.7,29.98,SSE,158,0.0,1.8,41,0.00,,,0.00,WUHU216HW,2013-05-07 10:51:00,
2013-05-07 04:02:00,58.1,34.5,29.98,SSW,203,0.2,1.1,41,0.00,,,0.00,WUHU216HW,2013-05-07 11:02:00,
2013-05-07 04:12:00,58.0,34.4,29.98,SW,225,0.0,0.0,41,0.00,,,0.00,WUHU216HW,2013-05-07 11:12:00,
2013-05-07 04:22:00,57.4,34.5,29.98,SE,135,0.4,1.8,42,0.00,,,0.00,WUHU216HW,2013-05-07 11:22:00,
2013-05-07 04:32:00,57.2,34.3,29.98,WSW,248,0.4,1.8,42,0.00,,,0.00,WUHU216HW,2013-05-07 11:32:00,
2013-05-07 04:42:00,56.9,34.5,29.98,ESE,113,1.1,1.1,43,0.00,,,0.00,WUHU216HW,2013-05-07 11:42:00,
2013-05-07 04:52:00,56.5,34.2,29.99,SE,135,0.7,1.8,43,0.00,,,0.00,WUHU216HW,2013-05-07 11:52:00,
2013-05-07 05:02:00,56.5,34.7,29.99,ESE,113,1.3,1.8,44,0.00,,,0.00,WUHU216HW,2013-05-07 12:02:00,
2013-05-07 05:12:00,56.0,34.2,29.99,SE,135,0.0,1.8,44,0.00,,,0.00,WUHU216HW,2013-05-07 12:12:00,
2013-05-07 05:22:00,55.8,34.1,29.99,NW,315,0.0,0.7,44,0.00,,,0.00,WUHU216HW,2013-05-07 12:22:00,
2013-05-07 05:32:00,55.8,34.1,29.99,WSW,248,0.0,1.1,44,0.00,,,0.00,WUHU216HW,2013-05-07 12:32:00,
2013-05-07 05:42:00,55.8,34.7,30.00,SSE,158,0.7,1.6,45,0.00,,,0.00,WUHU216HW,2013-05-07 12:42:00,
2013-05-07 05:52:00,55.8,34.7,30.00,SSE,158,1.8,1.8,45,0.00,,,0.00,WUHU216HW,2013-05-07 12:52:00,
2013-05-07 06:02:00,56.0,34.2,30.00,SE,135,0.9,1.6,44,0.00,,,0.00,WUHU216HW,2013-05-07 13:02:00,
2013-05-07 06:12:00,56.3,34.6,30.00,SSW,203,0.4,1.1,44,0.00,,,0.00,WUHU216HW,2013-05-07 13:12:00,
2013-05-07 06:22:00,56.9,35.1,30.00,SSE,158,0.2,1.3,44,0.00,,,0.00,WUHU216HW,2013-05-07 13:22:00,
2013-05-07 06:32:00,57.6,35.7,30.00,ESE,113,0.7,0.7,44,0.00,,,0.00,WUHU216HW,2013-05-07 13:32:00,
2013-05-07 06:42:00,58.5,36.5,30.00,WSW,248,1.1,1.8,44,0.00,,,0.00,WUHU216HW,2013-05-07 13:42:00,
2013-05-07 06:52:00,59.4,37.4,30.01,South,180,0.2,1.8,44,0.00,,,0.00,WUHU216HW,2013-05-07 13:52:00,
2013-05-07 07:03:00,60.7,38.5,30.01,SSW,203,0.4,1.1,44,0.00,,,0.00,WUHU216HW,2013-05-07 14:03:00,
2013-05-07 07:13:00,62.3,39.4,30.01,WSW,248,0.4,0.7,43,0.00,,,0.00,WUHU216HW,2013-05-07 14:13:00,
2013-05-07 07:23:00,63.4,40.3,30.01,NW,315,0.7,1.1,43,0.00,,,0.00,WUHU216HW,2013-05-07 14:23:00,
2013-05-07 07:33:00,64.8,40.5,30.01,West,270,0.7,1.8,41,0.00,,,0.00,WUHU216HW,2013-05-07 14:33:00,
2013-05-07 07:43:00,66.4,41.4,30.02,NNE,23,1.8,2.0,40,0.00,,,0.00,WUHU216HW,2013-05-07 14:43:00,
2013-05-07 07:53:00,67.7,41.8,30.01,NW,315,1.1,3.1,39,0.00,,,0.00,WUHU216HW,2013-05-07 14:53:00,
2013-05-07 08:03:00,68.8,42.8,30.01,North,0,3.8,4.7,39,0.00,,,0.00,WUHU216HW,2013-05-07 15:03:00,
2013-05-07 08:13:00,69.7,43.6,30.01,West,270,2.0,6.7,39,0.00,,,0.00,WUHU216HW,2013-05-07 15:13:00,
2013-05-07 08:23:00,70.6,43.7,30.01,North,0,2.2,5.6,38,0.00,,,0.00,WUHU216HW,2013-05-07 15:23:00,
2013-05-07 08:33:00,71.1,43.4,30.01,North,0,4.0,5.6,37,0.00,,,0.00,WUHU216HW,2013-05-07 15:33:00,
2013-05-07 08:43:00,71.6,43.1,30.01,NW,315,0.9,5.8,36,0.00,,,0.00,WUHU216HW,2013-05-07 15:43:00,
2013-05-07 08:53:00,72.0,42.7,30.01,West,270,2.5,3.4,35,0.00,,,0.00,WUHU216HW,2013-05-07 15:53:00,
2013-05-07 09:03:00,72.4,42.3,30.01,West,270,3.4,4.7,34,0.00,,,0.00,WUHU216HW,2013-05-07 16:03:00,
2013-05-07 09:13:00,73.3,43.0,30.01,North,0,2.7,4.0,34,0.00,,,0.00,WUHU216HW,2013-05-07 16:13:00,
2013-05-07 09:23:00,73.8,42.8,30.01,NW,315,4.5,4.5,33,0.00,,,0.00,WUHU216HW,2013-05-07 16:23:00,
2013-05-07 09:33:00,74.7,42.8,30.01,WNW,293,4.7,4.7,32,0.00,,,0.00,WUHU216HW,2013-05-07 16:33:00,
2013-05-07 09:43:00,75.1,42.4,30.01,NW,315,1.8,4.0,31,0.00,,,0.00,WUHU216HW,2013-05-07 16:43:00,
2013-05-07 09:53:00,75.4,42.7,30.01,West,270,4.7,6.7,31,0.00,,,0.00,WUHU216HW,2013-05-07 16:53:00,
2013-05-07 10:03:00,75.8,41.2,30.01,WNW,293,4.7,7.4,29,0.00,,,0.00,WUHU216HW,2013-05-07 17:03:00,
2013-05-07 10:13:00,76.1,41.6,30.01,West,270,4.0,5.4,29,0.00,,,0.00,WUHU216HW,2013-05-07 17:13:00,
2013-05-07 10:24:00,76.3,41.7,30.01,NNE,23,1.3,4.7,29,0.00,,,0.00,WUHU216HW,2013-05-07 17:24:00,
2013-05-07 10:34:00,76.7,42.0,30.01,WSW,248,4.3,5.8,29,0.00,,,0.00,WUHU216HW,2013-05-07 17:34:00,
2013-05-07 10:44:00,77.0,42.3,30.00,South,180,1.8,6.7,29,0.00,,,0.00,WUHU216HW,2013-05-07 17:44:00,
2013-05-07 10:54:00,77.4,42.7,30.00,NW,315,0.9,4.5,29,0.00,,,0.00,WUHU216HW,2013-05-07 17:54:00,
2013-05-07 11:04:00,77.6,42.8,30.00,NW,315,2.9,4.0,29,0.00,,,0.00,WUHU216HW,2013-05-07 18:04:00,
2013-05-07 11:14:00,77.9,43.0,30.00,ESE,113,0.4,6.0,29,0.00,,,0.00,WUHU216HW,2013-05-07 18:14:00,
2013-05-07 11:24:00,78.1,42.1,30.00,WSW,248,2.2,5.1,28,0.00,,,0.00,WUHU216HW,2013-05-07 18:24:00,
2013-05-07 11:34:00,79.0,42.9,29.99,SW,225,1.8,6.0,28,0.00,,,0.00,WUHU216HW,2013-05-07 18:34:00,
2013-05-07 11:44:00,79.0,41.9,29.99,West,270,4.3,7.6,27,0.00,,,0.00,WUHU216HW,2013-05-07 18:44:00,
2013-05-07 11:54:00,78.8,41.7,29.98,NNW,338,0.4,3.4,27,0.00,,,0.00,WUHU216HW,2013-05-07 18:54:00,
2013-05-07 12:04:00,78.7,40.5,29.98,North,0,3.1,3.4,26,0.00,,,0.00,WUHU216HW,2013-05-07 19:04:00,
2013-05-07 12:14:00,78.8,40.7,29.97,NW,315,4.7,4.7,26,0.00,,,0.00,WUHU216HW,2013-05-07 19:14:00,
2013-05-07 12:24:00,79.6,40.2,29.97,WNW,293,3.8,4.7,25,0.00,,,0.00,WUHU216HW,2013-05-07 19:24:00,
2013-05-07 12:34:00,80.5,40.1,29.96,NW,315,3.1,4.9,24,0.00,,,0.00,WUHU216HW,2013-05-07 19:34:00,
2013-05-07 12:44:00,81.0,40.5,29.96,SW,225,1.8,4.9,24,0.00,,,0.00,WUHU216HW,2013-05-07 19:44:00,
2013-05-07 12:54:00,81.2,39.6,29.95,NNE,23,2.7,6.7,23,0.00,,,0.00,WUHU216HW,2013-05-07 19:54:00,
2013-05-07 13:04:00,81.4,34.9,29.95,NW,315,6.3,6.7,19,0.00,,,0.00,WUHU216HW,2013-05-07 20:04:00,
2013-05-07 13:14:00,82.1,38.2,29.95,NNE,23,1.8,7.2,21,0.00,,,0.00,WUHU216HW,2013-05-07 20:14:00,
2013-05-07 13:24:00,82.8,36.0,29.94,West,270,4.0,11.4,19,0.00,,,0.00,WUHU216HW,2013-05-07 20:24:00,
2013-05-07 13:34:00,83.2,36.4,29.94,WSW,248,6.3,9.8,19,0.00,,,0.00,WUHU216HW,2013-05-07 20:34:00,
2013-05-07 13:45:00,83.9,35.2,29.93,WNW,293,6.5,6.9,18,0.00,,,0.00,WUHU216HW,2013-05-07 20:45:00,
2013-05-07 13:55:00,84.8,35.9,29.93,WSW,248,4.5,9.6,18,0.00,,,0.00,WUHU216HW,2013-05-07 20:55:00,
2013-05-07 14:05:00,85.5,34.7,29.93,West,270,7.6,8.3,17,0.00,,,0.00,WUHU216HW,2013-05-07 21:05:00,
2013-05-07 14:15:00,86.0,35.2,29.92,NNW,338,3.8,6.9,17,0.00,,,0.00,WUHU216HW,2013-05-07 21:15:00,
2013-05-07 14:25:00,86.2,33.7,29.92,West,270,9.4,13.4,16,0.00,,,0.00,WUHU216HW,2013-05-07 21:25:00,
2013-05-07 14:35:00,85.7,33.2,29.92,South,180,1.1,7.6,16,0.00,,,0.00,WUHU216HW,2013-05-07 21:35:00,
2013-05-07 14:45:00,86.0,33.5,29.91,NW,315,6.3,7.4,16,0.00,,,0.00,WUHU216HW,2013-05-07 21:45:00,
2013-05-07 14:55:00,86.0,28.4,29.91,WNW,293,4.5,12.5,13,0.00,,,0.00,WUHU216HW,2013-05-07 21:55:00,
2013-05-07 15:05:00,86.0,28.4,29.90,West,270,4.0,14.1,13,0.00,,,0.00,WUHU216HW,2013-05-07 22:05:00,
2013-05-07 15:15:00,85.7,28.1,29.90,NW,315,2.9,12.8,13,0.00,,,0.00,WUHU216HW,2013-05-07 22:15:00,
2013-05-07 15:25:00,86.0,26.6,29.90,NW,315,3.8,9.2,12,0.00,,,0.00,WUHU216HW,2013-05-07 22:25:00,
2013-05-07 15:35:00,85.7,26.4,29.90,NW,315,2.0,10.5,12,0.00,,,0.00,WUHU216HW,2013-05-07 22:35:00,
2013-05-07 15:45:00,85.7,28.1,29.89,West,270,8.5,9.2,13,0.00,,,0.00,WUHU216HW,2013-05-07 22:45:00,
2013-05-07 15:55:00,85.5,26.2,29.89,NNE,23,6.3,10.5,12,0.00,,,0.00,WUHU216HW,2013-05-07 22:55:00,
2013-05-07 16:06:00,85.3,27.8,29.89,NNW,338,5.4,8.3,13,0.00,,,0.00,WUHU216HW,2013-05-07 23:06:00,
2013-05-07 16:16:00,85.1,25.9,29.88,NW,315,5.8,9.2,12,0.00,,,0.00,WUHU216HW,2013-05-07 23:16:00,
2013-05-07 16:26:00,85.0,25.7,29.89,WSW,248,5.4,9.4,12,0.00,,,0.00,WUHU216HW,2013-05-07 23:26:00,
2013-05-07 16:36:00,85.0,25.7,29.89,NW,315,10.5,12.3,12,0.00,,,0.00,WUHU216HW,2013-05-07 23:36:00,
2013-05-07 16:46:00,84.2,25.2,29.88,WNW,293,5.1,12.8,12,0.00,,,0.00,WUHU216HW,2013-05-07 23:46:00,
2013-05-07 16:56:00,83.9,24.9,29.88,SW,225,11.9,11.9,12,0.00,,,0.00,WUHU216HW,2013-05-07 23:56:00,
2013-05-07 17:06:00,83.7,24.9,29.89,WNW,293,8.5,12.8,12,0.00,,,0.00,WUHU216HW,2013-05-08 00:06:00,
2013-05-07 17:16:00,83.2,24.4,29.89,WSW,248,4.9,8.5,12,0.00,,,0.00,WUHU216HW,2013-05-08 00:16:00,
2013-05-07 17:26:00,83.2,24.4,29.89,West,270,6.3,11.2,12,0.00,,,0.00,WUHU216HW,2013-05-08 00:26:00,
2013-05-07 17:36:00,83.2,26.1,29.89,West,270,8.5,14.8,13,0.00,,,0.00,WUHU216HW,2013-05-08 00:36:00,
2013-05-07 17:46:00,82.6,25.8,29.89,NNW,338,6.0,11.9,13,0.00,,,0.00,WUHU216HW,2013-05-08 00:46:00,
2013-05-07 17:56:00,82.3,25.5,29.89,West,270,8.5,8.5,13,0.00,,,0.00,WUHU216HW,2013-05-08 00:56:00,
2013-05-07 18:06:00,81.7,28.5,29.89,NNW,338,5.6,9.6,15,0.00,,,0.00,WUHU216HW,2013-05-08 01:06:00,
2013-05-07 18:16:00,81.0,27.8,29.89,WNW,293,5.4,9.2,15,0.00,,,0.00,WUHU216HW,2013-05-08 01:16:00,
2013-05-07 18:26:00,80.6,27.5,29.89,SW,225,4.3,8.3,15,0.00,,,0.00,WUHU216HW,2013-05-08 01:26:00,
2013-05-07 18:36:00,80.3,27.3,29.89,West,270,4.9,7.2,15,0.00,,,0.00,WUHU216HW,2013-05-08 01:36:00,
2013-05-07 18:46:00,79.6,28.3,29.90,NW,315,3.8,8.9,16,0.00,,,0.00,WUHU216HW,2013-05-08 01:46:00,
2013-05-07 18:56:00,78.7,27.5,29.90,NW,315,4.5,8.7,16,0.00,,,0.00,WUHU216HW,2013-05-08 01:56:00,
2013-05-07 19:06:00,77.9,28.6,29.90,WNW,293,3.8,8.5,17,0.00,,,0.00,WUHU216HW,2013-05-08 02:06:00,
2013-05-07 19:16:00,77.4,28.3,29.90,WNW,293,4.7,7.6,17,0.00,,,0.00,WUHU216HW,2013-05-08 02:16:00,
2013-05-07 19:27:00,76.9,26.2,29.91,West,270,3.4,8.1,16,0.00,,,0.00,WUHU216HW,2013-05-08 02:27:00,
2013-05-07 19:37:00,76.3,24.1,29.91,WNW,293,2.5,7.6,15,0.00,,,0.00,WUHU216HW,2013-05-08 02:37:00,
2013-05-07 19:47:00,76.0,23.8,29.91,NW,315,3.8,6.3,15,0.00,,,0.00,WUHU216HW,2013-05-08 02:47:00,
2013-05-07 19:57:00,75.4,23.4,29.91,NW,315,3.1,8.3,15,0.00,,,0.00,WUHU216HW,2013-05-08 02:57:00,
2013-05-07 20:07:00,74.9,24.6,29.92,North,0,8.5,8.5,16,0.00,,,0.00,WUHU216HW,2013-05-08 03:07:00,
2013-05-07 20:17:00,74.5,26.0,29.92,NNW,338,1.8,7.2,17,0.00,,,0.00,WUHU216HW,2013-05-08 03:17:00,
2013-05-07 20:27:00,74.2,32.7,29.93,WNW,293,4.0,9.4,22,0.00,,,0.00,WUHU216HW,2013-05-08 03:27:00,
2013-05-07 20:37:00,73.4,40.9,29.93,NNW,338,3.4,7.2,31,0.00,,,0.00,WUHU216HW,2013-05-08 03:37:00,
2013-05-07 20:47:00,72.7,41.9,29.93,NE,45,3.8,9.6,33,0.00,,,0.00,WUHU216HW,2013-05-08 03:47:00,
2013-05-07 20:57:00,72.0,41.9,29.94,NNW,338,4.9,6.3,34,0.00,,,0.00,WUHU216HW,2013-05-08 03:57:00,
2013-05-07 21:07:00,71.3,42.0,29.94,NE,45,5.6,6.3,35,0.00,,,0.00,WUHU216HW,2013-05-08 04:07:00,
2013-05-07 21:17:00,70.9,43.9,29.95,NNE,23,3.4,6.0,38,0.00,,,0.00,WUHU216HW,2013-05-08 04:17:00,
2013-05-07 21:27:00,70.6,44.4,29.95,North,0,5.1,8.1,39,0.00,,,0.00,WUHU216HW,2013-05-08 04:27:00,
2013-05-07 21:37:00,70.2,43.3,29.96,NW,315,4.7,8.3,38,0.00,,,0.00,WUHU216HW,2013-05-08 04:37:00,
2013-05-07 21:47:00,70.0,42.4,29.97,NNW,338,3.4,3.4,37,0.00,,,0.00,WUHU216HW,2013-05-08 04:47:00,
2013-05-07 21:57:00,69.7,42.9,29.98,WNW,293,2.7,4.9,38,0.00,,,0.00,WUHU216HW,2013-05-08 04:57:00,
2013-05-07 22:07:00,69.1,42.3,29.98,WNW,293,4.3,4.3,38,0.00,,,0.00,WUHU216HW,2013-05-08 05:07:00,
2013-05-07 22:17:00,68.8,42.0,29.98,NW,315,3.1,3.1,38,0.00,,,0.00,WUHU216HW,2013-05-08 05:17:00,
2013-05-07 22:27:00,68.6,41.9,29.98,NW,315,0.7,1.8,38,0.00,,,0.00,WUHU216HW,2013-05-08 05:27:00,
2013-05-07 22:38:00,68.2,42.3,29.98,WNW,293,1.1,2.5,39,0.00,,,0.00,WUHU216HW,2013-05-08 05:38:00,
2013-05-07 22:48:00,67.9,41.9,29.98,North,0,0.4,2.9,39,0.00,,,0.00,WUHU216HW,2013-05-08 05:48:00,
2013-05-07 22:58:00,67.5,41.6,29.98,NW,315,2.2,2.2,39,0.00,,,0.00,WUHU216HW,2013-05-08 05:58:00,
2013-05-07 23:08:00,67.0,41.1,29.98,NNW,338,0.2,2.0,39,0.00,,,0.00,WUHU216HW,2013-05-08 06:08:00,
2013-05-07 23:18:00,66.6,40.9,29.99,NW,315,0.9,1.8,39,0.00,,,0.00,WUHU216HW,2013-05-08 06:18:00,
2013-05-07 23:28:00,66.4,40.7,29.99,NW,315,0.0,2.2,39,0.00,,,0.00,WUHU216HW,2013-05-08 06:28:00,
2013-05-07 23:38:00,66.1,40.3,30.00,NNW,338,0.4,1.1,39,0.00,,,0.00,WUHU216HW,2013-05-08 06:38:00,
2013-05-07 23:48:00,65.7,40.1,30.00,NNW,338,0.0,0.4,39,0.00,,,0.00,WUHU216HW,2013-05-08 06:48:00,
2013-05-07 23:58:00,65.0,40.1,30.00,North,0,0.0,0.4,40,0.00,,,0.00,WUHU216HW,2013-05-08 06:58:00,